Cleveland, Ohio
Traffic Map
Current Weather Conditions
Cleveland, Ohio
Overcast
Overcast

Feels Like: 3°
Wind Chill: Ceiling: 1300
Heat Index: Visibility: 10mi
Dew Point: Wind: 3mph
Humidity: 86% Direction: 340° (NNW)
Pressure: 30.07in Gusts: 0mph
Raw Report DataKBKL 191653Z 34003KT 10SM OVC013 03/01 A3007 RMK AO2 SLP188 T00280006
Traffic Incident Summary
Active as of:
Severity:
Category:
InformationThere was an issue retrieving the traffic information for this location. Please try a different location or try again shortly.
Advertisements
Track Severe Weather on mobile